Jpo Gemini — A8VF7 — position and weather

sailwx.info

Track history (hours):
 
Tides and Currents Weather Stations Pressure Air Temp Water Temp Dewpoint Dewpoint Depression Visibility Wind Speed Wind Dir Waves Ship Positions

Jpo Gemini

Last reported at 2017-Apr-23 00:00 UTC. Time now 2017-Apr-24 03:44 UTC.
Position N 34°36' W 007°42'.

Length 207 m; draft 8 m.

Type: Cargo ship. MMSI: 636091995.

Wind from 320 at 10 knots

Barometer 1016.5 mb
Air temperature 19.0 ° C
Visibility: greater than 5.4 NM
Dewpoint 11.1 ° C
Water temperature 22.0 ° C

Date/timePositionNaut miles runAvg speedWind from/ knotsBaromVisibWave heightAir tempDewpointWater temp
2017-Apr-23 00:00N 34°36' W 007°42'24410.2 320 / 101016.5 5.4 19.011.122.0
2017-Apr-22 00:00N 31°42' W 011°06'251 9.7 360 / 101018.0 5.4 19.015.522.0
2017-Apr-20 22:07N 28°50' W 014°38'110.1
2017-Apr-20 22:00N 28°49' W 014°39'510.2
2017-Apr-20 21:30N 28°45' W 014°43'510.2
2017-Apr-20 21:00N 28°42' W 014°47'510.1
2017-Apr-20 20:30N 28°38' W 014°51'510.1
2017-Apr-20 20:00N 28°34' W 014°55'510.2
2017-Apr-20 19:30N 28°31' W 014°59'5 9.9
2017-Apr-20 19:00N 28°27' W 015°03'5 9.8
2017-Apr-20 18:30N 28°24' W 015°06'5 9.7
2017-Apr-20 18:00N 28°20' W 015°10'5 9.9
2017-Apr-20 17:30N 28°17' W 015°14'5 9.9
2017-Apr-20 17:00N 28°13' W 015°18'510.0
2017-Apr-20 16:30N 28°09' W 015°22'3 4.1
2017-Apr-20 15:52N 28°07' W 015°24'0 0.1
2017-Apr-20 15:22N 28°07' W 015°24'0 0.0
2017-Apr-20 14:52N 28°07' W 015°24'0 0.1
2017-Apr-20 14:22N 28°07' W 015°24'0 0.1
2017-Apr-20 13:25N 28°07' W 015°24'1 1.2
2017-Apr-20 13:00N 28°08' W 015°23'3 5.4
2017-Apr-20 12:30N 28°07' W 015°20'4 8.2
2017-Apr-20 12:00N 28°07' W 015°16'611.4
2017-Apr-20 11:30N 28°08' W 015°09'611.3
2017-Apr-20 11:00N 28°09' W 015°03'611.2
2017-Apr-20 10:30N 28°07' W 014°57'713.2
2017-Apr-20 10:00N 28°01' W 014°58'612.9
2017-Apr-20 09:31N 27°55' W 015°00'613.0
2017-Apr-20 09:00N 27°48' W 015°02'713.1
2017-Apr-20 08:30N 27°42' W 015°04'612.8
2017-Apr-20 08:00N 27°36' W 015°06'612.8
2017-Apr-20 07:30N 27°30' W 015°09'712.8
2017-Apr-20 06:56N 27°23' W 015°12'9313.4
2017-Apr-20 00:00N 25°54' W 015°42'31813.2 290 / 101012.010.8 20.011.522.0
2017-Apr-19 00:00N 20°54' W 017°36'6611.3 340 / 101014.010.8 19.015.722.0
2017-Apr-18 18:07N 19°48' W 017°41'212.7
2017-Apr-18 17:57N 19°46' W 017°41'612.5
2017-Apr-18 17:29N 19°40' W 017°41'612.3
2017-Apr-18 17:00N 19°34' W 017°41'812.3
2017-Apr-18 16:23N 19°27' W 017°41'2412.5
2017-Apr-18 14:29N 19°03' W 017°41'2712.6
2017-Apr-18 12:20N 18°36' W 017°42'512.6
2017-Apr-18 11:55N 18°31' W 017°42'9011.7
2017-Apr-18 04:13N 17°01' W 017°44'6710.8
2017-Apr-17 22:01N 15°54' W 017°45'011.1
2017-Apr-17 21:59N 15°53' W 017°45'611.1
2017-Apr-17 21:29N 15°48' W 017°45'510.9
2017-Apr-17 21:00N 15°43' W 017°45'610.9
2017-Apr-17 20:25N 15°36' W 017°46'1411.1
2017-Apr-17 19:10N 15°22' W 017°46'211.5
2017-Apr-17 19:00N 15°20' W 017°46'611.5
2017-Apr-17 18:30N 15°15' W 017°46'611.5
2017-Apr-17 17:59N 15°09' W 017°46'611.6
2017-Apr-17 17:30N 15°03' W 017°46'611.6
2017-Apr-17 17:00N 14°57' W 017°46'3712.1
2017-Apr-17 13:58N 14°21' W 017°47'612.3
2017-Apr-17 13:29N 14°15' W 017°47'612.5
2017-Apr-17 13:01N 14°09' W 017°47'612.4
2017-Apr-17 12:30N 14°03' W 017°47'612.0
2017-Apr-17 11:58N 13°56' W 017°47'611.9
2017-Apr-17 11:31N 13°51' W 017°47'714.3
2017-Apr-17 11:00N 13°43' W 017°48'3012.5
2017-Apr-17 08:36N 13°13' W 017°48'112.5
2017-Apr-17 08:30N 13°12' W 017°48'2412.5
2017-Apr-17 06:37N 12°49' W 017°46'112.6
2017-Apr-17 06:30N 12°47' W 017°46'2012.5
2017-Apr-17 04:54N 12°28' W 017°41'612.4
2017-Apr-17 04:27N 12°22' W 017°40'10012.0
2017-Apr-16 20:05N 10°46' W 017°14'111.8
2017-Apr-16 20:00N 10°45' W 017°13'611.6
2017-Apr-16 19:30N 10°40' W 017°10'1212.2
2017-Apr-16 18:33N 10°30' W 017°04'112.0
2017-Apr-16 18:27N 10°29' W 017°04'612.2
2017-Apr-16 18:00N 10°24' W 017°01'612.2
2017-Apr-16 17:30N 10°19' W 016°58'611.9
2017-Apr-16 17:00N 10°13' W 016°55'612.3
2017-Apr-16 16:30N 10°08' W 016°52'612.4
2017-Apr-16 16:00N 10°03' W 016°49'612.2
2017-Apr-16 15:30N 09°58' W 016°45'612.5
2017-Apr-16 15:00N 09°54' W 016°40'612.4
2017-Apr-16 14:30N 09°50' W 016°35'1212.4
2017-Apr-16 13:30N 09°41' W 016°26'613.0
2017-Apr-16 13:00N 09°37' W 016°21'612.9
2017-Apr-16 12:30N 09°33' W 016°16'612.6
2017-Apr-16 12:00N 09°28' W 016°12'612.5
2017-Apr-16 11:30N 09°24' W 016°07'714.9
2017-Apr-16 11:01N 09°19' W 016°01'713.3
2017-Apr-16 10:31N 09°15' W 015°56'713.3
2017-Apr-16 10:00N 09°10' W 015°51'713.2
2017-Apr-16 09:31N 09°06' W 015°47'712.9
2017-Apr-16 09:00N 09°01' W 015°42'612.9
2017-Apr-16 08:30N 08°57' W 015°37'613.1
2017-Apr-16 08:01N 08°53' W 015°32'713.0
2017-Apr-16 07:31N 08°48' W 015°27'713.0
2017-Apr-16 07:00N 08°44' W 015°22'713.1
2017-Apr-16 06:30N 08°40' W 015°17'1013.2
2017-Apr-16 05:46N 08°33' W 015°10'313.0
2017-Apr-16 05:30N 08°31' W 015°07'613.0
2017-Apr-16 05:01N 08°27' W 015°02'713.3
2017-Apr-16 04:30N 08°22' W 014°58'713.2
2017-Apr-16 04:01N 08°17' W 014°53'713.1
2017-Apr-16 03:30N 08°13' W 014°48'713.2
2017-Apr-16 03:00N 08°09' W 014°43'713.1
2017-Apr-16 02:30N 08°04' W 014°38'613.1
2017-Apr-16 02:00N 07°60' W 014°33'1813.0
2017-Apr-16 00:36N 07°47' W 014°20'112.9
2017-Apr-16 00:31N 07°47' W 014°19'2212.9
2017-Apr-15 22:48N 07°32' W 014°02'  
Track history (hours):
 
Tides and Currents Weather Stations Pressure Air Temp Water Temp Dewpoint Dewpoint Depression Visibility Wind Speed Wind Dir Waves Ship Positions

Jpo Gemini

Last reported at 2017-Apr-23 00:00 UTC. Time now 2017-Apr-24 03:44 UTC.
Position N 34°36' W 007°42'.

Length 207 m; draft 8 m.

Type: Cargo ship. MMSI: 636091995.

Wind from 320 at 10 knots

Barometer 1016.5 mb
Air temperature 19.0 ° C
Visibility: greater than 5.4 NM
Dewpoint 11.1 ° C
Water temperature 22.0 ° C

Date/timePositionNaut miles runAvg speedWind from/ knotsBaromVisibWave heightAir tempDewpointWater temp
2017-Apr-23 00:00N 34°36' W 007°42'24410.2 320 / 101016.5 5.4 19.011.122.0
2017-Apr-22 00:00N 31°42' W 011°06'251 9.7 360 / 101018.0 5.4 19.015.522.0
2017-Apr-20 22:07N 28°50' W 014°38'110.1
2017-Apr-20 22:00N 28°49' W 014°39'510.2
2017-Apr-20 21:30N 28°45' W 014°43'510.2
2017-Apr-20 21:00N 28°42' W 014°47'510.1
2017-Apr-20 20:30N 28°38' W 014°51'510.1
2017-Apr-20 20:00N 28°34' W 014°55'510.2
2017-Apr-20 19:30N 28°31' W 014°59'5 9.9
2017-Apr-20 19:00N 28°27' W 015°03'5 9.8
2017-Apr-20 18:30N 28°24' W 015°06'5 9.7
2017-Apr-20 18:00N 28°20' W 015°10'5 9.9
2017-Apr-20 17:30N 28°17' W 015°14'5 9.9
2017-Apr-20 17:00N 28°13' W 015°18'510.0
2017-Apr-20 16:30N 28°09' W 015°22'3 4.1
2017-Apr-20 15:52N 28°07' W 015°24'0 0.1
2017-Apr-20 15:22N 28°07' W 015°24'0 0.0
2017-Apr-20 14:52N 28°07' W 015°24'0 0.1
2017-Apr-20 14:22N 28°07' W 015°24'0 0.1
2017-Apr-20 13:25N 28°07' W 015°24'1 1.2
2017-Apr-20 13:00N 28°08' W 015°23'3 5.4
2017-Apr-20 12:30N 28°07' W 015°20'4 8.2
2017-Apr-20 12:00N 28°07' W 015°16'611.4
2017-Apr-20 11:30N 28°08' W 015°09'611.3
2017-Apr-20 11:00N 28°09' W 015°03'611.2
2017-Apr-20 10:30N 28°07' W 014°57'713.2
2017-Apr-20 10:00N 28°01' W 014°58'612.9
2017-Apr-20 09:31N 27°55' W 015°00'613.0
2017-Apr-20 09:00N 27°48' W 015°02'713.1
2017-Apr-20 08:30N 27°42' W 015°04'612.8
2017-Apr-20 08:00N 27°36' W 015°06'612.8
2017-Apr-20 07:30N 27°30' W 015°09'712.8
2017-Apr-20 06:56N 27°23' W 015°12'9313.4
2017-Apr-20 00:00N 25°54' W 015°42'31813.2 290 / 101012.010.8 20.011.522.0
2017-Apr-19 00:00N 20°54' W 017°36'6611.3 340 / 101014.010.8 19.015.722.0
2017-Apr-18 18:07N 19°48' W 017°41'212.7
2017-Apr-18 17:57N 19°46' W 017°41'612.5
2017-Apr-18 17:29N 19°40' W 017°41'612.3
2017-Apr-18 17:00N 19°34' W 017°41'812.3
2017-Apr-18 16:23N 19°27' W 017°41'2412.5
2017-Apr-18 14:29N 19°03' W 017°41'2712.6
2017-Apr-18 12:20N 18°36' W 017°42'512.6
2017-Apr-18 11:55N 18°31' W 017°42'9011.7
2017-Apr-18 04:13N 17°01' W 017°44'6710.8
2017-Apr-17 22:01N 15°54' W 017°45'011.1
2017-Apr-17 21:59N 15°53' W 017°45'611.1
2017-Apr-17 21:29N 15°48' W 017°45'510.9
2017-Apr-17 21:00N 15°43' W 017°45'610.9
2017-Apr-17 20:25N 15°36' W 017°46'1411.1
2017-Apr-17 19:10N 15°22' W 017°46'211.5
2017-Apr-17 19:00N 15°20' W 017°46'611.5
2017-Apr-17 18:30N 15°15' W 017°46'611.5
2017-Apr-17 17:59N 15°09' W 017°46'611.6
2017-Apr-17 17:30N 15°03' W 017°46'611.6
2017-Apr-17 17:00N 14°57' W 017°46'3712.1
2017-Apr-17 13:58N 14°21' W 017°47'612.3
2017-Apr-17 13:29N 14°15' W 017°47'612.5
2017-Apr-17 13:01N 14°09' W 017°47'612.4
2017-Apr-17 12:30N 14°03' W 017°47'612.0
2017-Apr-17 11:58N 13°56' W 017°47'611.9
2017-Apr-17 11:31N 13°51' W 017°47'714.3
2017-Apr-17 11:00N 13°43' W 017°48'3012.5
2017-Apr-17 08:36N 13°13' W 017°48'112.5
2017-Apr-17 08:30N 13°12' W 017°48'2412.5
2017-Apr-17 06:37N 12°49' W 017°46'112.6
2017-Apr-17 06:30N 12°47' W 017°46'2012.5
2017-Apr-17 04:54N 12°28' W 017°41'612.4
2017-Apr-17 04:27N 12°22' W 017°40'10012.0
2017-Apr-16 20:05N 10°46' W 017°14'111.8
2017-Apr-16 20:00N 10°45' W 017°13'611.6
2017-Apr-16 19:30N 10°40' W 017°10'1212.2
2017-Apr-16 18:33N 10°30' W 017°04'112.0
2017-Apr-16 18:27N 10°29' W 017°04'612.2
2017-Apr-16 18:00N 10°24' W 017°01'612.2
2017-Apr-16 17:30N 10°19' W 016°58'611.9
2017-Apr-16 17:00N 10°13' W 016°55'612.3
2017-Apr-16 16:30N 10°08' W 016°52'612.4
2017-Apr-16 16:00N 10°03' W 016°49'612.2
2017-Apr-16 15:30N 09°58' W 016°45'612.5
2017-Apr-16 15:00N 09°54' W 016°40'612.4
2017-Apr-16 14:30N 09°50' W 016°35'1212.4
2017-Apr-16 13:30N 09°41' W 016°26'613.0
2017-Apr-16 13:00N 09°37' W 016°21'612.9
2017-Apr-16 12:30N 09°33' W 016°16'612.6
2017-Apr-16 12:00N 09°28' W 016°12'612.5
2017-Apr-16 11:30N 09°24' W 016°07'714.9
2017-Apr-16 11:01N 09°19' W 016°01'713.3
2017-Apr-16 10:31N 09°15' W 015°56'713.3
2017-Apr-16 10:00N 09°10' W 015°51'713.2
2017-Apr-16 09:31N 09°06' W 015°47'712.9
2017-Apr-16 09:00N 09°01' W 015°42'612.9
2017-Apr-16 08:30N 08°57' W 015°37'613.1
2017-Apr-16 08:01N 08°53' W 015°32'713.0
2017-Apr-16 07:31N 08°48' W 015°27'713.0
2017-Apr-16 07:00N 08°44' W 015°22'713.1
2017-Apr-16 06:30N 08°40' W 015°17'1013.2
2017-Apr-16 05:46N 08°33' W 015°10'313.0
2017-Apr-16 05:30N 08°31' W 015°07'613.0
2017-Apr-16 05:01N 08°27' W 015°02'713.3
2017-Apr-16 04:30N 08°22' W 014°58'713.2
2017-Apr-16 04:01N 08°17' W 014°53'713.1
2017-Apr-16 03:30N 08°13' W 014°48'713.2
2017-Apr-16 03:00N 08°09' W 014°43'713.1
2017-Apr-16 02:30N 08°04' W 014°38'613.1
2017-Apr-16 02:00N 07°60' W 014°33'1813.0
2017-Apr-16 00:36N 07°47' W 014°20'112.9
2017-Apr-16 00:31N 07°47' W 014°19'2212.9
2017-Apr-15 22:48N 07°32' W 014°02'  

Dump ship's entire track history